createdAt,value
2019-02-10T00:00:45.248Z,2.10
2019-02-10T00:03:14.914Z,2.09
2019-02-10T00:05:43.548Z,2.04
2019-02-10T00:08:12.183Z,2.14
2019-02-10T00:10:41.798Z,2.21
2019-02-10T00:13:22.343Z,2.23
2019-02-10T00:15:50.980Z,2.24
2019-02-10T00:18:19.615Z,2.17
2019-02-10T00:20:48.283Z,2.16
2019-02-10T00:23:16.978Z,2.11
2019-02-10T00:25:45.635Z,2.06
2019-02-10T00:28:14.656Z,2.00
2019-02-10T00:30:43.343Z,1.92
2019-02-10T00:33:12.047Z,1.81
2019-02-10T00:35:40.749Z,1.78
2019-02-10T00:38:09.398Z,1.71
2019-02-10T00:40:38.107Z,1.74
2019-02-10T00:43:06.747Z,1.74
2019-02-10T00:45:35.382Z,1.69
2019-02-10T00:48:04.448Z,1.69
2019-02-10T00:50:33.108Z,1.67
2019-02-10T00:53:02.886Z,1.70
2019-02-10T00:55:31.530Z,1.76
2019-02-10T00:58:00.180Z,1.83
2019-02-10T01:00:28.806Z,1.83
2019-02-10T01:02:57.731Z,1.84
2019-02-10T01:05:26.410Z,1.71
2019-02-10T01:07:55.040Z,1.72
2019-02-10T01:10:25.089Z,1.64
2019-02-10T01:12:53.795Z,1.61
2019-02-10T01:15:22.427Z,1.69
2019-02-10T01:17:51.185Z,1.60
2019-02-10T01:20:20.370Z,1.51
2019-02-10T01:22:49.016Z,1.60
2019-02-10T01:25:17.656Z,1.59
2019-02-10T01:27:46.303Z,1.41
2019-02-10T01:30:15.081Z,1.41
2019-02-10T01:32:43.716Z,1.53
2019-02-10T01:35:12.546Z,1.59
2019-02-10T01:37:41.170Z,1.53
2019-02-10T01:40:10.094Z,1.50
2019-02-10T01:42:38.754Z,1.48
2019-02-10T01:45:08.365Z,1.49
2019-02-10T01:47:37.102Z,1.50
2019-02-10T01:50:06.138Z,1.49
2019-02-10T01:52:34.844Z,1.54
2019-02-10T01:55:03.642Z,1.57
2019-02-10T01:57:32.286Z,1.53
2019-02-10T02:00:00.940Z,1.49
2019-02-10T02:02:29.976Z,1.47
2019-02-10T02:04:58.622Z,1.49
2019-02-10T02:07:27.260Z,1.47
2019-02-10T02:09:56.231Z,1.43
2019-02-10T02:12:24.907Z,1.37
2019-02-10T02:14:53.611Z,1.46
2019-02-10T02:17:22.251Z,1.49
2019-02-10T02:19:50.896Z,1.46
2019-02-10T02:22:19.531Z,1.47
2019-02-10T02:24:48.503Z,1.41
2019-02-10T02:27:17.152Z,1.39
2019-02-10T02:29:45.779Z,1.39
2019-02-10T02:32:14.423Z,1.34
2019-02-10T02:34:43.165Z,1.31
2019-02-10T02:37:11.791Z,1.28
2019-02-10T02:39:41.390Z,1.29
2019-02-10T02:42:10.055Z,1.35
2019-02-10T02:44:38.686Z,1.37
2019-02-10T02:47:07.320Z,1.35
2019-02-10T02:49:35.991Z,1.34
2019-02-10T02:52:04.650Z,1.38
2019-02-10T02:54:33.364Z,1.36
2019-02-10T02:57:03.548Z,1.36
2019-02-10T02:59:32.460Z,1.42
2019-02-10T03:02:01.480Z,1.48
2019-02-10T03:04:30.134Z,1.50
2019-02-10T03:06:58.775Z,1.50
2019-02-10T03:09:27.492Z,1.53
2019-02-10T03:11:56.216Z,1.49
2019-02-10T03:14:24.860Z,1.50
2019-02-10T03:16:53.504Z,1.45
2019-02-10T03:19:22.241Z,1.44
2019-02-10T03:21:50.886Z,1.35
2019-02-10T03:24:19.517Z,1.28
2019-02-10T03:26:48.159Z,1.26
2019-02-10T03:29:16.868Z,1.22
2019-02-10T03:31:45.504Z,1.19
2019-02-10T03:34:14.140Z,1.18
2019-02-10T03:36:42.772Z,1.16
2019-02-10T03:39:11.420Z,1.13
2019-02-10T03:41:40.071Z,1.10
2019-02-10T03:44:08.704Z,1.05
2019-02-10T03:46:37.417Z,0.99
2019-02-10T03:49:06.140Z,0.98
2019-02-10T03:51:34.769Z,0.93
2019-02-10T03:54:04.294Z,0.93
2019-02-10T03:56:33.074Z,0.86
2019-02-10T03:59:01.770Z,0.84
2019-02-10T04:01:30.462Z,0.80
2019-02-10T04:03:59.188Z,0.88
2019-02-10T04:06:27.908Z,0.85
2019-02-10T04:08:56.851Z,0.89
2019-02-10T04:11:25.498Z,0.92
2019-02-10T04:13:54.129Z,0.89
2019-02-10T04:16:22.758Z,0.90
2019-02-10T04:18:51.401Z,0.88
2019-02-10T04:21:20.112Z,0.89
2019-02-10T04:23:48.779Z,0.85
2019-02-10T04:26:17.478Z,0.86
2019-02-10T04:28:46.123Z,0.90
2019-02-10T04:31:14.760Z,0.91
2019-02-10T04:33:43.419Z,0.93
2019-02-10T04:36:12.047Z,0.92
2019-02-10T04:38:40.683Z,0.92
2019-02-10T04:41:09.333Z,0.93
2019-02-10T04:43:37.955Z,0.96
2019-02-10T04:46:06.595Z,0.97
2019-02-10T04:48:35.241Z,1.00
2019-02-10T04:51:03.875Z,1.04
2019-02-10T04:53:32.511Z,1.02
2019-02-10T04:56:11.384Z,1.05
2019-02-10T04:58:40.316Z,1.11
2019-02-10T05:01:08.950Z,1.15
2019-02-10T05:03:37.682Z,1.16
2019-02-10T05:06:06.590Z,1.21
2019-02-10T05:08:35.236Z,1.19
2019-02-10T05:11:03.946Z,1.21
2019-02-10T05:13:32.583Z,1.24
2019-02-10T05:16:01.218Z,1.29
2019-02-10T05:18:29.859Z,1.35
2019-02-10T05:20:58.510Z,1.36
2019-02-10T05:23:27.147Z,1.41
2019-02-10T05:25:55.782Z,1.40
2019-02-10T05:28:24.451Z,1.43
2019-02-10T05:30:53.091Z,1.43
2019-02-10T05:33:21.751Z,1.46
2019-02-10T05:35:50.412Z,1.44
2019-02-10T05:38:19.121Z,1.50
2019-02-10T05:40:47.761Z,1.50
2019-02-10T05:43:16.388Z,1.51
2019-02-10T05:45:45.027Z,1.53
2019-02-10T05:48:13.672Z,1.50
2019-02-10T05:50:42.300Z,1.52
2019-02-10T05:53:10.923Z,1.58
2019-02-10T05:55:39.577Z,1.55
2019-02-10T05:58:08.204Z,1.57
2019-02-10T06:00:36.863Z,1.59
2019-02-10T06:03:05.522Z,1.71
2019-02-10T06:05:34.196Z,1.73
2019-02-10T06:08:02.848Z,1.78
2019-02-10T06:10:31.586Z,1.78
2019-02-10T06:13:00.249Z,1.78
2019-02-10T06:15:28.883Z,1.78
2019-02-10T06:17:57.818Z,1.75
2019-02-10T06:20:26.450Z,1.76
2019-02-10T06:22:55.086Z,1.76
2019-02-10T06:25:23.731Z,1.71
2019-02-10T06:27:52.364Z,1.69
2019-02-10T06:30:20.994Z,1.66
2019-02-10T06:32:49.650Z,1.63
2019-02-10T06:35:18.287Z,1.65
2019-02-10T06:37:46.926Z,1.68
2019-02-10T06:40:15.575Z,1.63
2019-02-10T06:42:44.208Z,1.69
2019-02-10T06:45:13.187Z,1.72
2019-02-10T06:47:42.310Z,1.77
2019-02-10T06:50:11.039Z,1.87
2019-02-10T06:52:39.707Z,1.84
2019-02-10T06:55:09.905Z,1.85
2019-02-10T06:57:38.533Z,1.91
2019-02-10T07:00:21.713Z,2.00
2019-02-10T07:03:13.691Z,2.01
2019-02-10T07:05:42.351Z,2.04
2019-02-10T07:08:11.243Z,2.12
2019-02-10T07:10:39.901Z,2.22
2019-02-10T07:13:08.539Z,2.24
2019-02-10T07:15:55.056Z,2.32
2019-02-10T07:18:41.896Z,2.39
2019-02-10T07:21:10.971Z,2.49
2019-02-10T07:23:55.570Z,2.55
2019-02-10T07:26:42.247Z,2.64
2019-02-10T07:29:36.128Z,2.69
2019-02-10T07:32:07.690Z,2.80
2019-02-10T07:34:55.595Z,2.92
2019-02-10T07:37:43.487Z,3.13
2019-02-10T07:40:31.403Z,3.34
2019-02-10T07:43:03.762Z,3.53
2019-02-10T07:45:37.692Z,3.63
2019-02-10T07:48:27.678Z,3.67
2019-02-10T07:51:14.214Z,3.87
2019-02-10T07:54:11.207Z,3.81
2019-02-10T07:56:53.421Z,3.96
2019-02-10T07:59:41.333Z,4.04
2019-02-10T08:02:44.751Z,4.07
2019-02-10T08:05:16.224Z,4.25
2019-02-10T08:07:51.687Z,4.57
2019-02-10T08:10:28.513Z,4.63
2019-02-10T08:13:16.414Z,5.02
2019-02-10T08:15:50.633Z,5.00
2019-02-10T08:18:38.541Z,5.04
2019-02-10T08:21:11.311Z,5.21
2019-02-10T08:23:59.522Z,5.42
2019-02-10T08:26:56.822Z,5.60
2019-02-10T08:29:31.828Z,5.83
2019-02-10T08:32:18.234Z,6.00
2019-02-10T08:34:50.206Z,6.19
2019-02-10T08:37:41.816Z,6.20
2019-02-10T08:40:24.964Z,6.09
2019-02-10T08:42:58.650Z,5.97
2019-02-10T08:45:58.680Z,5.98
2019-02-10T08:49:01.722Z,5.99
2019-02-10T08:51:42.230Z,5.99
2019-02-10T08:54:11.105Z,5.96
2019-02-10T08:56:39.734Z,6.30
2019-02-10T08:59:08.680Z,6.67
2019-02-10T09:01:37.321Z,6.56
2019-02-10T09:04:06.371Z,7.04
2019-02-10T09:06:35.019Z,7.06
2019-02-10T09:09:04.861Z,6.96
2019-02-10T09:11:33.619Z,6.91
2019-02-10T09:14:02.743Z,6.79
2019-02-10T09:16:31.369Z,6.99
2019-02-10T09:19:00.007Z,6.92
2019-02-10T09:21:28.685Z,6.75
2019-02-10T09:23:57.327Z,6.68
2019-02-10T09:26:25.963Z,6.64
2019-02-10T09:28:54.679Z,6.69
2019-02-10T09:31:23.307Z,6.66
2019-02-10T09:33:52.027Z,6.74
2019-02-10T09:36:20.678Z,6.53
2019-02-10T09:38:49.318Z,6.74
2019-02-10T09:41:17.954Z,6.94
2019-02-10T09:43:46.628Z,6.96
2019-02-10T09:46:15.250Z,7.13
2019-02-10T09:48:43.904Z,7.42
2019-02-10T09:51:12.556Z,7.77
2019-02-10T09:53:41.288Z,7.97
2019-02-10T09:56:10.727Z,8.09
2019-02-10T09:58:39.572Z,8.08
2019-02-10T10:01:08.199Z,8.27
2019-02-10T10:03:36.825Z,8.01
2019-02-10T10:06:05.550Z,8.15
2019-02-10T10:08:35.151Z,8.12
2019-02-10T10:11:03.787Z,7.89
2019-02-10T10:13:32.435Z,7.74
2019-02-10T10:16:01.071Z,8.00
2019-02-10T10:18:29.709Z,8.20
2019-02-10T10:20:58.355Z,7.85
2019-02-10T10:23:26.983Z,7.84
2019-02-10T10:25:55.623Z,8.41
2019-02-10T10:28:24.267Z,8.53
2019-02-10T10:30:52.947Z,8.68
2019-02-10T10:33:21.660Z,9.08
2019-02-10T10:35:50.310Z,9.18
2019-02-10T10:38:18.935Z,9.48
2019-02-10T10:40:47.572Z,9.60
2019-02-10T10:43:16.226Z,9.58
2019-02-10T10:45:44.864Z,10.05
2019-02-10T10:48:13.658Z,10.20
2019-02-10T10:50:42.334Z,10.14
2019-02-10T10:53:10.976Z,10.23
2019-02-10T10:55:39.684Z,10.32
2019-02-10T10:58:08.330Z,10.63
2019-02-10T11:00:36.974Z,10.51
2019-02-10T11:03:05.628Z,10.01
2019-02-10T11:05:34.627Z,10.02
2019-02-10T11:08:03.265Z,10.36
2019-02-10T11:10:31.913Z,10.83
2019-02-10T11:13:00.657Z,10.26
2019-02-10T11:15:29.291Z,10.23
2019-02-10T11:17:58.248Z,10.15
2019-02-10T11:20:26.904Z,9.52
2019-02-10T11:22:55.531Z,9.50
2019-02-10T11:25:24.167Z,9.43
2019-02-10T11:27:52.892Z,9.73
2019-02-10T11:30:21.655Z,9.44
2019-02-10T11:32:50.303Z,9.61
2019-02-10T11:35:18.946Z,9.50
2019-02-10T11:37:47.578Z,9.30
2019-02-10T11:40:16.279Z,9.13
2019-02-10T11:42:44.919Z,9.03
2019-02-10T11:45:13.811Z,8.97
2019-02-10T11:47:42.838Z,9.23
2019-02-10T11:50:11.482Z,9.56
2019-02-10T11:52:40.121Z,9.55
2019-02-10T11:55:08.845Z,9.45
2019-02-10T11:57:38.160Z,9.57
2019-02-10T12:00:07.300Z,9.62
2019-02-10T12:02:38.038Z,9.74
2019-02-10T12:05:07.060Z,9.42
2019-02-10T12:07:35.699Z,9.33
2019-02-10T12:10:04.437Z,9.20
2019-02-10T12:12:33.104Z,9.54
2019-02-10T12:15:01.739Z,9.56
2019-02-10T12:17:30.373Z,9.82
2019-02-10T12:19:59.014Z,10.06
2019-02-10T12:22:27.663Z,11.43
2019-02-10T12:24:57.384Z,12.27
2019-02-10T12:27:26.039Z,13.21
2019-02-10T12:29:54.683Z,12.98
2019-02-10T12:32:23.331Z,12.40
2019-02-10T12:34:51.986Z,11.44
2019-02-10T12:37:20.628Z,12.21
2019-02-10T12:39:49.271Z,13.75
2019-02-10T12:42:17.929Z,13.80
2019-02-10T12:44:46.655Z,14.14
2019-02-10T12:47:15.291Z,13.59
2019-02-10T12:49:44.191Z,12.69
2019-02-10T12:52:12.947Z,12.25
2019-02-10T12:54:41.594Z,10.99
2019-02-10T12:57:10.550Z,10.47
2019-02-10T12:59:39.259Z,10.18
2019-02-10T13:02:07.919Z,10.09
2019-02-10T13:04:36.566Z,9.88
2019-02-10T13:07:05.282Z,9.71
2019-02-10T13:09:33.919Z,9.86
2019-02-10T13:12:02.570Z,9.75
2019-02-10T13:14:31.288Z,10.10
2019-02-10T13:16:59.928Z,10.25
2019-02-10T13:19:29.586Z,10.49
2019-02-10T13:21:58.567Z,10.51
2019-02-10T13:24:27.207Z,11.88
2019-02-10T13:26:55.883Z,13.77
2019-02-10T13:29:24.523Z,13.28
2019-02-10T13:31:53.155Z,13.37
2019-02-10T13:34:21.816Z,13.88
2019-02-10T13:36:50.699Z,12.53
2019-02-10T13:39:19.370Z,11.81
2019-02-10T13:41:47.371Z,12.14
2019-02-10T13:44:16.007Z,12.22
2019-02-10T13:46:44.657Z,11.79
2019-02-10T13:49:13.310Z,11.66
2019-02-10T13:51:42.022Z,11.71
2019-02-10T13:54:10.718Z,12.78
2019-02-10T13:56:39.364Z,13.00
2019-02-10T13:59:07.988Z,12.86
2019-02-10T14:01:36.630Z,13.47
2019-02-10T14:04:05.276Z,14.03
2019-02-10T14:06:33.970Z,12.66
2019-02-10T14:09:06.168Z,11.59
2019-02-10T14:11:34.707Z,10.66
2019-02-10T14:14:03.336Z,9.99
2019-02-10T14:16:31.990Z,9.86
2019-02-10T14:19:00.628Z,9.40
2019-02-10T14:21:29.269Z,9.04
2019-02-10T14:23:57.925Z,9.45
2019-02-10T14:26:26.908Z,9.22
2019-02-10T14:28:55.547Z,9.41
2019-02-10T14:31:24.192Z,9.55
2019-02-10T14:33:53.119Z,9.50
2019-02-10T14:36:21.787Z,9.11
2019-02-10T14:38:50.512Z,8.80
2019-02-10T14:41:19.174Z,8.49
2019-02-10T14:43:47.812Z,8.09
2019-02-10T14:46:16.480Z,8.04
2019-02-10T14:48:45.195Z,8.11
2019-02-10T14:51:13.847Z,7.92
2019-02-10T14:53:42.511Z,7.98
2019-02-10T14:56:11.147Z,8.05
2019-02-10T14:58:43.136Z,7.90
2019-02-10T15:01:10.134Z,7.70
2019-02-10T15:03:38.769Z,7.74
2019-02-10T15:06:07.423Z,7.59
2019-02-10T15:08:36.204Z,7.60
2019-02-10T15:11:04.831Z,7.63
2019-02-10T15:13:33.489Z,7.64
2019-02-10T15:16:02.154Z,7.69
2019-02-10T15:18:30.790Z,7.72
2019-02-10T15:20:59.434Z,7.52
2019-02-10T15:23:28.114Z,7.56
2019-02-10T15:25:56.726Z,7.75
2019-02-10T15:28:25.359Z,7.71
2019-02-10T15:30:54.022Z,7.51
2019-02-10T15:33:22.735Z,7.53
2019-02-10T15:35:51.673Z,7.51
2019-02-10T15:38:20.707Z,7.21
2019-02-10T15:40:50.271Z,7.26
2019-02-10T15:43:20.427Z,6.90
2019-02-10T15:45:49.435Z,6.81
2019-02-10T15:48:18.097Z,6.88
2019-02-10T15:50:46.736Z,6.67
2019-02-10T15:53:15.383Z,6.65
2019-02-10T15:55:44.044Z,6.64
2019-02-10T15:58:12.859Z,6.48
2019-02-10T16:00:41.519Z,6.41
2019-02-10T16:03:10.153Z,6.49
2019-02-10T16:05:38.865Z,6.38
2019-02-10T16:08:07.808Z,6.38
2019-02-10T16:10:36.526Z,6.29
2019-02-10T16:13:05.536Z,6.50
2019-02-10T16:15:34.194Z,6.84
2019-02-10T16:18:02.831Z,6.59
2019-02-10T16:20:31.502Z,6.43
2019-02-10T16:23:00.158Z,6.42
2019-02-10T16:25:28.858Z,6.39
2019-02-10T16:27:57.498Z,6.59
2019-02-10T16:30:26.135Z,6.33
2019-02-10T16:32:55.051Z,6.31
2019-02-10T16:35:23.695Z,6.25
2019-02-10T16:37:52.347Z,6.24
2019-02-10T16:40:21.016Z,6.18
2019-02-10T16:42:49.651Z,6.11
2019-02-10T16:45:18.453Z,6.10
2019-02-10T16:47:47.167Z,6.04
2019-02-10T16:50:15.823Z,6.11
2019-02-10T16:52:44.549Z,6.11
2019-02-10T16:55:14.255Z,6.07
2019-02-10T16:57:42.955Z,6.10
2019-02-10T17:00:12.423Z,6.12
2019-02-10T17:02:41.522Z,6.11
2019-02-10T17:05:10.338Z,6.13
2019-02-10T17:07:39.112Z,6.00
2019-02-10T17:10:08.620Z,5.89
2019-02-10T17:12:37.254Z,5.74
2019-02-10T17:15:06.518Z,5.79
2019-02-10T17:17:35.146Z,6.02
2019-02-10T17:20:04.184Z,5.84
2019-02-10T17:22:32.872Z,5.75
2019-02-10T17:25:01.530Z,5.85
2019-02-10T17:27:30.539Z,5.92
2019-02-10T17:29:59.948Z,5.85
2019-02-10T17:32:29.312Z,5.95
2019-02-10T17:34:58.180Z,5.90
2019-02-10T17:37:27.100Z,5.85
2019-02-10T17:39:56.051Z,5.94
2019-02-10T17:42:24.713Z,5.95
2019-02-10T17:44:53.453Z,6.01
2019-02-10T17:47:22.175Z,6.03
2019-02-10T17:49:50.880Z,6.13
2019-02-10T17:52:19.549Z,6.21
2019-02-10T17:54:48.239Z,6.22
2019-02-10T17:57:16.936Z,6.32
2019-02-10T17:59:45.626Z,6.17
2019-02-10T18:02:14.422Z,6.28
2019-02-10T18:04:43.183Z,6.29
2019-02-10T18:07:11.917Z,6.32
2019-02-10T18:09:40.796Z,6.43
2019-02-10T18:12:09.464Z,6.33
2019-02-10T18:14:58.949Z,6.41
2019-02-10T18:17:55.979Z,6.47
2019-02-10T18:20:43.724Z,6.53
2019-02-10T18:23:19.268Z,6.49
2019-02-10T18:26:03.990Z,6.52
2019-02-10T18:28:42.202Z,6.47
2019-02-10T18:31:33.038Z,6.48
2019-02-10T18:34:10.168Z,6.35
2019-02-10T18:36:52.900Z,6.12
2019-02-10T18:39:33.759Z,5.89
2019-02-10T18:42:21.116Z,5.74
2019-02-10T18:45:11.538Z,5.95
2019-02-10T18:47:51.637Z,5.86
2019-02-10T18:50:31.887Z,5.53
2019-02-10T18:53:18.485Z,5.23
2019-02-10T18:56:15.725Z,5.33
2019-02-10T18:58:54.802Z,5.12
2019-02-10T19:01:45.377Z,5.13
2019-02-10T19:04:30.751Z,4.98
2019-02-10T19:07:10.087Z,4.96
2019-02-10T19:10:07.128Z,4.97
2019-02-10T19:12:47.403Z,4.91
2019-02-10T19:15:36.903Z,4.86
2019-02-10T19:18:23.985Z,4.79
2019-02-10T19:21:07.934Z,4.80
2019-02-10T19:23:52.323Z,4.79
2019-02-10T19:26:38.994Z,4.81
2019-02-10T19:29:32.561Z,4.83
2019-02-10T19:32:09.450Z,4.79
2019-02-10T19:34:47.531Z,4.76
2019-02-10T19:37:38.144Z,4.74
2019-02-10T19:40:32.052Z,4.76
2019-02-10T19:43:25.878Z,4.76
2019-02-10T19:46:08.399Z,4.82
2019-02-10T19:48:48.782Z,4.83
2019-02-10T19:51:35.490Z,4.85
2019-02-10T19:54:19.825Z,4.87
2019-02-10T19:57:19.935Z,4.90
2019-02-10T20:00:19.739Z,4.88
2019-02-10T20:02:55.915Z,4.90
2019-02-10T20:05:30.359Z,1.95
2019-02-10T20:08:24.089Z,2.59
2019-02-10T20:10:59.683Z,2.98
2019-02-10T20:13:53.999Z,3.23
2019-02-10T20:16:53.718Z,3.54
2019-02-10T20:19:40.007Z,3.85
2019-02-10T20:22:19.623Z,4.52
2019-02-10T20:25:07.562Z,-146.33
